createdAt,value
2018-03-07T00:00:34.082Z,0.00
2018-03-07T00:01:39.578Z,0.00
2018-03-07T00:02:46.099Z,0.00
2018-03-07T00:03:51.136Z,0.00
2018-03-07T00:04:57.101Z,0.00
2018-03-07T00:06:01.642Z,0.00
2018-03-07T00:07:07.635Z,0.00
2018-03-07T00:08:13.666Z,0.00
2018-03-07T00:09:18.195Z,0.00
2018-03-07T00:10:24.750Z,0.00
2018-03-07T00:11:29.182Z,0.00
2018-03-07T00:12:34.769Z,0.00
2018-03-07T00:13:41.238Z,0.00
2018-03-07T00:14:45.763Z,0.00
2018-03-07T00:15:52.244Z,0.00
2018-03-07T00:16:56.733Z,0.00
2018-03-07T00:18:02.248Z,0.00
2018-03-07T00:19:08.775Z,0.00
2018-03-07T00:20:14.141Z,0.00
2018-03-07T00:21:19.800Z,0.00
2018-03-07T00:22:24.296Z,0.00
2018-03-07T00:23:29.776Z,0.00
2018-03-07T00:24:36.342Z,0.00
2018-03-07T00:25:40.830Z,0.00
2018-03-07T00:26:47.343Z,0.00
2018-03-07T00:27:51.856Z,0.00
2018-03-07T00:28:57.356Z,0.00
2018-03-07T00:30:03.884Z,0.00
2018-03-07T00:31:08.396Z,0.00
2018-03-07T00:32:14.936Z,0.00
2018-03-07T00:33:19.411Z,0.00
2018-03-07T00:34:24.934Z,0.00
2018-03-07T00:35:31.438Z,0.00
2018-03-07T00:36:35.953Z,0.00
2018-03-07T00:37:42.470Z,0.00
2018-03-07T00:38:46.971Z,0.00
2018-03-07T00:39:52.489Z,0.00
2018-03-07T00:40:59.008Z,0.00
2018-03-07T00:42:03.492Z,0.00
2018-03-07T00:43:10.037Z,0.00
2018-03-07T00:44:14.526Z,0.00
2018-03-07T00:45:20.043Z,0.00
2018-03-07T00:46:26.559Z,0.00
2018-03-07T00:47:31.052Z,0.00
2018-03-07T00:48:37.625Z,0.00
2018-03-07T00:49:42.129Z,0.00
2018-03-07T00:50:47.588Z,0.00
2018-03-07T00:51:54.107Z,0.00
2018-03-07T00:52:58.616Z,0.00
2018-03-07T00:54:05.139Z,0.00
2018-03-07T00:55:09.640Z,0.00
2018-03-07T00:56:15.131Z,0.00
2018-03-07T00:57:21.671Z,0.00
2018-03-07T00:58:26.154Z,0.00
2018-03-07T00:59:32.682Z,0.00
2018-03-07T01:00:37.174Z,0.00
2018-03-07T01:01:42.724Z,0.00
2018-03-07T01:02:49.208Z,0.00
2018-03-07T01:03:53.707Z,0.00
2018-03-07T01:05:00.244Z,0.00
2018-03-07T01:06:04.735Z,0.00
2018-03-07T01:07:10.251Z,0.00
2018-03-07T01:08:16.757Z,0.00
2018-03-07T01:09:21.268Z,0.00
2018-03-07T01:10:27.796Z,0.00
2018-03-07T01:11:32.283Z,0.00
2018-03-07T01:12:37.802Z,0.00
2018-03-07T01:13:44.324Z,0.00
2018-03-07T01:14:48.825Z,0.00
2018-03-07T01:15:55.336Z,0.00
2018-03-07T01:16:59.836Z,0.00
2018-03-07T01:18:05.367Z,0.00
2018-03-07T01:19:11.877Z,0.00
2018-03-07T01:20:16.382Z,0.00
2018-03-07T01:21:22.899Z,0.00
2018-03-07T01:22:27.401Z,0.00
2018-03-07T01:23:32.900Z,0.00
2018-03-07T01:24:39.425Z,0.00
2018-03-07T01:25:43.942Z,0.00
2018-03-07T01:26:50.521Z,0.00
2018-03-07T01:27:54.949Z,0.00
2018-03-07T01:29:00.445Z,0.00
2018-03-07T01:30:06.973Z,0.00
2018-03-07T01:31:11.542Z,0.00
2018-03-07T01:32:18.005Z,0.00
2018-03-07T01:33:22.502Z,0.00
2018-03-07T01:34:28.017Z,0.00
2018-03-07T01:35:34.526Z,0.00
2018-03-07T01:36:39.024Z,0.00
2018-03-07T01:37:45.549Z,0.00
2018-03-07T01:38:50.054Z,0.00
2018-03-07T01:39:55.568Z,0.00
2018-03-07T01:41:02.077Z,0.00
2018-03-07T01:42:06.589Z,0.00
2018-03-07T01:43:13.108Z,0.00
2018-03-07T01:44:17.603Z,0.00
2018-03-07T01:45:23.117Z,0.00
2018-03-07T01:46:29.642Z,0.00
2018-03-07T01:47:34.144Z,0.00
2018-03-07T01:48:40.657Z,0.00
2018-03-07T01:49:45.148Z,0.00
2018-03-07T01:50:50.680Z,0.00
2018-03-07T01:51:57.188Z,0.00
2018-03-07T01:53:01.690Z,0.00
2018-03-07T01:54:08.201Z,0.00
2018-03-07T01:55:12.716Z,0.00
2018-03-07T01:56:18.220Z,0.00
2018-03-07T01:57:24.741Z,0.00
2018-03-07T01:58:29.247Z,0.00
2018-03-07T01:59:35.757Z,0.00
2018-03-07T02:00:40.263Z,0.00
2018-03-07T02:01:45.782Z,0.00
2018-03-07T02:02:52.320Z,0.00
2018-03-07T02:03:57.703Z,0.00
2018-03-07T02:05:03.357Z,0.00
2018-03-07T02:06:07.893Z,0.00
2018-03-07T02:07:13.320Z,0.00
2018-03-07T02:08:19.849Z,0.00
2018-03-07T02:09:24.339Z,0.00
2018-03-07T02:10:30.850Z,0.00
2018-03-07T02:11:35.370Z,0.00
2018-03-07T02:12:40.872Z,0.00
2018-03-07T02:13:47.401Z,0.00
2018-03-07T02:14:51.891Z,0.00
2018-03-07T02:15:58.422Z,0.00
2018-03-07T02:17:02.915Z,0.00
2018-03-07T02:18:08.416Z,0.00
2018-03-07T02:19:14.941Z,0.00
2018-03-07T02:20:19.463Z,0.00
2018-03-07T02:21:25.972Z,0.00
2018-03-07T02:22:30.465Z,0.00
2018-03-07T02:23:35.968Z,0.00
2018-03-07T02:24:42.485Z,0.00
2018-03-07T02:25:46.987Z,0.00
2018-03-07T02:26:53.528Z,0.00
2018-03-07T02:27:58.011Z,0.00
2018-03-07T02:29:03.516Z,0.00
2018-03-07T02:30:10.045Z,0.00
2018-03-07T02:31:14.544Z,0.00
2018-03-07T02:32:21.064Z,0.00
2018-03-07T02:33:25.566Z,0.00
2018-03-07T02:34:31.098Z,0.00
2018-03-07T02:35:37.589Z,0.00
2018-03-07T02:36:42.091Z,0.00
2018-03-07T02:37:48.616Z,0.00
2018-03-07T02:38:53.270Z,0.00
2018-03-07T02:39:58.627Z,0.00
2018-03-07T02:41:05.144Z,0.00
2018-03-07T02:42:09.635Z,0.00
2018-03-07T02:43:16.175Z,0.00
2018-03-07T02:44:20.663Z,0.00
2018-03-07T02:45:26.167Z,0.00
2018-03-07T02:46:32.689Z,0.00
2018-03-07T02:47:37.194Z,0.00
2018-03-07T02:48:43.729Z,0.00
2018-03-07T02:49:48.213Z,0.00
2018-03-07T02:50:53.727Z,0.00
2018-03-07T02:52:00.249Z,0.00
2018-03-07T02:53:04.738Z,0.00
2018-03-07T02:54:11.257Z,0.00
2018-03-07T02:55:15.769Z,0.00
2018-03-07T02:56:21.272Z,0.00
2018-03-07T02:57:27.804Z,0.00
2018-03-07T02:58:32.296Z,0.00
2018-03-07T02:59:38.809Z,0.00
2018-03-07T03:00:43.318Z,0.00
2018-03-07T03:01:48.821Z,0.00
2018-03-07T03:02:55.343Z,0.00
2018-03-07T03:03:59.844Z,0.00
2018-03-07T03:05:06.364Z,0.00
2018-03-07T03:06:10.867Z,0.00
2018-03-07T03:07:16.373Z,0.00
2018-03-07T03:08:22.886Z,0.00
2018-03-07T03:09:27.399Z,0.00
2018-03-07T03:10:33.910Z,0.00
2018-03-07T03:11:38.409Z,0.00
2018-03-07T03:12:43.936Z,0.00
2018-03-07T03:13:50.443Z,0.00
2018-03-07T03:14:54.937Z,0.00
2018-03-07T03:16:01.459Z,0.00
2018-03-07T03:17:05.957Z,0.00
2018-03-07T03:18:11.467Z,0.00
2018-03-07T03:19:17.981Z,0.00
2018-03-07T03:20:22.500Z,0.00
2018-03-07T03:21:29.025Z,0.00
2018-03-07T03:22:33.514Z,0.00
2018-03-07T03:23:39.021Z,0.00
2018-03-07T03:24:45.540Z,0.00
2018-03-07T03:25:50.033Z,0.00
2018-03-07T03:26:56.579Z,0.00
2018-03-07T03:28:01.051Z,0.00
2018-03-07T03:29:06.563Z,0.00
2018-03-07T03:30:13.089Z,0.00
2018-03-07T03:31:17.595Z,0.00
2018-03-07T03:32:24.107Z,0.00
2018-03-07T03:33:28.616Z,0.00
2018-03-07T03:34:34.117Z,0.00
2018-03-07T03:35:40.637Z,0.00
2018-03-07T03:36:45.137Z,0.00
2018-03-07T03:37:51.658Z,0.00
2018-03-07T03:38:56.155Z,0.00
2018-03-07T03:40:01.694Z,0.00
2018-03-07T03:41:08.197Z,0.00
2018-03-07T03:42:12.686Z,0.00
2018-03-07T03:43:19.206Z,0.00
2018-03-07T03:44:23.705Z,0.00
2018-03-07T03:45:29.217Z,0.00
2018-03-07T03:46:35.750Z,0.00
2018-03-07T03:47:40.234Z,0.00
2018-03-07T03:48:46.748Z,0.00
2018-03-07T03:49:51.258Z,0.00
2018-03-07T03:50:56.758Z,0.00
2018-03-07T03:52:03.284Z,0.00
2018-03-07T03:53:07.786Z,0.00
2018-03-07T03:54:14.321Z,0.00
2018-03-07T03:55:18.797Z,0.00
2018-03-07T03:56:24.312Z,0.00
2018-03-07T03:57:30.831Z,0.00
2018-03-07T03:58:35.329Z,0.00
2018-03-07T03:59:41.847Z,0.00
2018-03-07T04:00:46.347Z,0.00
2018-03-07T04:01:51.860Z,0.00
2018-03-07T04:02:58.379Z,0.00
2018-03-07T04:04:02.879Z,0.00
2018-03-07T04:05:09.407Z,0.00
2018-03-07T04:06:13.894Z,0.00
2018-03-07T04:07:19.410Z,0.00
2018-03-07T04:08:25.929Z,0.00
2018-03-07T04:09:30.428Z,0.00
2018-03-07T04:10:36.952Z,0.00
2018-03-07T04:11:41.453Z,0.00
2018-03-07T04:12:46.962Z,0.00
2018-03-07T04:13:53.472Z,0.00
2018-03-07T04:14:57.970Z,0.00
2018-03-07T04:16:04.499Z,0.00
2018-03-07T04:17:09.004Z,0.00
2018-03-07T04:18:14.504Z,0.00
2018-03-07T04:19:21.027Z,0.00
2018-03-07T04:20:25.537Z,0.00
2018-03-07T04:21:32.041Z,0.00
2018-03-07T04:22:36.556Z,0.00
2018-03-07T04:23:42.039Z,0.00
2018-03-07T04:24:48.580Z,0.00
2018-03-07T04:25:53.076Z,0.00
2018-03-07T04:26:59.599Z,0.00
2018-03-07T04:28:04.094Z,0.00
2018-03-07T04:29:09.603Z,0.00
2018-03-07T04:30:16.125Z,0.00
2018-03-07T04:31:20.624Z,0.00
2018-03-07T04:32:27.131Z,0.00
2018-03-07T04:33:31.629Z,0.00
2018-03-07T04:34:37.139Z,0.00
2018-03-07T04:35:43.671Z,0.00
2018-03-07T04:36:48.168Z,0.00
2018-03-07T04:37:54.693Z,0.00
2018-03-07T04:38:59.180Z,0.00
2018-03-07T04:40:04.684Z,0.00
2018-03-07T04:41:11.205Z,0.00
2018-03-07T04:42:15.707Z,0.00
2018-03-07T04:43:22.232Z,0.00
2018-03-07T04:44:26.740Z,0.00
2018-03-07T04:45:32.315Z,0.00
2018-03-07T04:46:38.759Z,0.00
2018-03-07T04:47:43.253Z,0.00
2018-03-07T04:48:49.781Z,0.00
2018-03-07T04:49:54.271Z,0.00
2018-03-07T04:50:59.784Z,0.00
2018-03-07T04:52:06.300Z,0.00
2018-03-07T04:53:10.810Z,0.00
2018-03-07T04:54:17.318Z,0.00
2018-03-07T04:55:21.820Z,0.00
2018-03-07T04:56:27.327Z,0.00
2018-03-07T04:57:33.856Z,0.00
2018-03-07T04:58:38.346Z,0.00
2018-03-07T04:59:44.871Z,0.00
2018-03-07T05:00:49.381Z,0.00
2018-03-07T05:01:54.872Z,0.00
2018-03-07T05:03:01.399Z,0.00
2018-03-07T05:04:05.910Z,0.00
2018-03-07T05:05:12.413Z,0.00
2018-03-07T05:06:16.915Z,0.00
2018-03-07T05:07:22.423Z,0.00
2018-03-07T05:08:28.939Z,0.00
2018-03-07T05:09:33.441Z,0.00
2018-03-07T05:10:39.973Z,0.00
2018-03-07T05:11:44.460Z,0.00
2018-03-07T05:12:49.989Z,0.00
2018-03-07T05:13:56.486Z,0.00
2018-03-07T05:15:01.016Z,0.00
2018-03-07T05:16:07.519Z,0.00
2018-03-07T05:17:11.996Z,0.00
2018-03-07T05:18:17.522Z,0.00
2018-03-07T05:19:24.042Z,0.00
2018-03-07T05:20:28.528Z,0.00
2018-03-07T05:21:35.054Z,0.00
2018-03-07T05:22:39.555Z,0.00
2018-03-07T05:23:45.058Z,0.00
2018-03-07T05:24:51.580Z,0.00
2018-03-07T05:25:56.085Z,0.00
2018-03-07T05:27:02.603Z,0.00
2018-03-07T05:28:07.097Z,0.00
2018-03-07T05:29:12.605Z,0.00
2018-03-07T05:30:19.140Z,0.00
2018-03-07T05:31:23.627Z,0.00
2018-03-07T05:32:30.140Z,0.00
2018-03-07T05:33:34.648Z,0.00
2018-03-07T05:34:40.149Z,0.00
2018-03-07T05:35:46.677Z,0.00
2018-03-07T05:36:51.165Z,0.00
2018-03-07T05:37:57.686Z,0.00
2018-03-07T05:39:02.183Z,0.00
2018-03-07T05:40:07.699Z,0.00
2018-03-07T05:41:14.213Z,0.00
2018-03-07T05:42:18.723Z,0.00
2018-03-07T05:43:25.250Z,0.00
2018-03-07T05:44:29.731Z,0.00
2018-03-07T05:45:35.234Z,0.00
2018-03-07T05:46:41.760Z,4.00
2018-03-07T05:47:46.263Z,4.00
2018-03-07T05:48:52.767Z,0.00
2018-03-07T05:49:57.276Z,4.00
2018-03-07T05:51:02.781Z,4.00
2018-03-07T05:52:09.295Z,4.00
2018-03-07T05:53:13.805Z,4.00
2018-03-07T05:54:20.314Z,8.00
2018-03-07T05:55:24.820Z,8.00
2018-03-07T05:56:30.339Z,8.00
2018-03-07T05:57:36.855Z,4.00
2018-03-07T05:58:41.346Z,8.00
2018-03-07T05:59:47.864Z,12.00
2018-03-07T06:00:52.366Z,12.00
2018-03-07T06:01:57.872Z,12.00
2018-03-07T06:03:04.392Z,16.00
2018-03-07T06:04:08.894Z,20.00
2018-03-07T06:05:15.413Z,20.00
2018-03-07T06:06:19.929Z,20.00
2018-03-07T06:07:25.409Z,24.00
2018-03-07T06:08:31.943Z,28.00
2018-03-07T06:09:36.437Z,28.00
2018-03-07T06:10:42.966Z,28.00
2018-03-07T06:11:47.451Z,36.00
2018-03-07T06:12:52.955Z,36.00
2018-03-07T06:13:59.476Z,36.00
2018-03-07T06:15:03.996Z,40.00
2018-03-07T06:16:10.501Z,40.00
2018-03-07T06:17:14.995Z,40.00
2018-03-07T06:18:20.504Z,48.00
2018-03-07T06:19:27.034Z,56.00
2018-03-07T06:20:31.514Z,56.00
2018-03-07T06:21:38.034Z,60.00
2018-03-07T06:22:42.526Z,64.00
2018-03-07T06:23:48.046Z,68.00
2018-03-07T06:24:54.563Z,72.00
2018-03-07T06:25:59.054Z,80.00
2018-03-07T06:27:05.579Z,80.00
2018-03-07T06:28:10.078Z,88.00
2018-03-07T06:29:15.595Z,92.00
2018-03-07T06:30:22.110Z,96.00
2018-03-07T06:31:26.619Z,100.00
2018-03-07T06:32:33.121Z,104.00
2018-03-07T06:33:37.620Z,108.00
2018-03-07T06:34:43.128Z,112.00
2018-03-07T06:35:49.661Z,120.00
2018-03-07T06:36:54.150Z,124.00
2018-03-07T06:38:00.667Z,124.00
2018-03-07T06:39:05.166Z,128.00
2018-03-07T06:40:10.677Z,128.00
2018-03-07T06:41:17.282Z,132.00
2018-03-07T06:42:21.685Z,136.00
2018-03-07T06:43:28.206Z,144.00
2018-03-07T06:44:32.714Z,148.00
2018-03-07T06:45:38.266Z,148.00
2018-03-07T06:46:44.737Z,156.00
2018-03-07T06:47:49.224Z,160.00
2018-03-07T06:48:55.755Z,164.00
2018-03-07T06:50:00.251Z,160.00
2018-03-07T06:51:05.761Z,164.00
2018-03-07T06:52:12.279Z,168.00
2018-03-07T06:53:16.767Z,176.00
2018-03-07T06:54:23.288Z,180.00
2018-03-07T06:55:27.790Z,184.00
2018-03-07T06:56:33.320Z,160.00
2018-03-07T06:57:39.814Z,204.00
2018-03-07T06:58:44.332Z,212.00
2018-03-07T06:59:50.844Z,216.00
2018-03-07T07:00:55.338Z,224.00
2018-03-07T07:02:00.843Z,136.00
2018-03-07T07:03:07.359Z,240.00
2018-03-07T07:04:11.854Z,248.00
2018-03-07T07:05:18.376Z,252.00
2018-03-07T07:06:22.874Z,252.00
2018-03-07T07:07:28.390Z,256.00
2018-03-07T07:08:34.914Z,264.00
2018-03-07T07:09:39.405Z,264.00
2018-03-07T07:10:45.930Z,268.00
2018-03-07T07:11:50.419Z,276.00
2018-03-07T07:12:55.931Z,276.00
2018-03-07T07:14:02.458Z,284.00
2018-03-07T07:15:06.946Z,288.00
2018-03-07T07:16:13.472Z,296.00
2018-03-07T07:17:17.961Z,300.00
2018-03-07T07:18:23.481Z,228.00
2018-03-07T07:19:29.993Z,312.00
2018-03-07T07:20:34.496Z,224.00
2018-03-07T07:21:41.004Z,316.00
2018-03-07T07:22:45.510Z,232.00
2018-03-07T07:23:51.009Z,316.00
2018-03-07T07:24:57.529Z,236.00
2018-03-07T07:26:02.051Z,288.00
2018-03-07T07:27:08.554Z,240.00
2018-03-07T07:28:13.054Z,328.00
2018-03-07T07:29:18.560Z,340.00
2018-03-07T07:30:25.076Z,340.00
2018-03-07T07:31:29.582Z,348.00
2018-03-07T07:32:36.105Z,348.00
2018-03-07T07:33:40.588Z,348.00
2018-03-07T07:34:46.113Z,352.00
2018-03-07T07:35:52.620Z,364.00
2018-03-07T07:36:57.117Z,368.00
2018-03-07T07:38:03.631Z,372.00
2018-03-07T07:39:08.134Z,376.00
2018-03-07T07:40:13.633Z,376.00
2018-03-07T07:41:20.154Z,380.00
2018-03-07T07:42:24.654Z,384.00
2018-03-07T07:43:31.177Z,388.00
2018-03-07T07:44:35.667Z,392.00
2018-03-07T07:45:41.181Z,392.00
2018-03-07T07:46:47.712Z,396.00
2018-03-07T07:47:52.200Z,400.00
2018-03-07T07:48:58.728Z,400.00
2018-03-07T07:50:03.222Z,404.00
2018-03-07T07:51:08.720Z,404.00
2018-03-07T07:52:15.266Z,408.00
2018-03-07T07:53:19.738Z,408.00
2018-03-07T07:54:26.296Z,412.00
2018-03-07T07:55:30.766Z,420.00
2018-03-07T07:56:36.282Z,420.00
2018-03-07T07:57:42.818Z,424.00
2018-03-07T07:58:47.292Z,424.00
2018-03-07T07:59:53.816Z,428.00
2018-03-07T08:00:58.332Z,428.00
2018-03-07T08:02:03.810Z,436.00
2018-03-07T08:03:10.347Z,436.00
2018-03-07T08:04:14.832Z,440.00
2018-03-07T08:05:21.364Z,440.00
2018-03-07T08:06:25.871Z,440.00
2018-03-07T08:07:31.361Z,444.00
2018-03-07T08:08:37.905Z,444.00
2018-03-07T08:09:42.397Z,448.00
2018-03-07T08:10:48.916Z,448.00
2018-03-07T08:11:53.430Z,456.00
2018-03-07T08:12:58.913Z,456.00
2018-03-07T08:14:05.450Z,460.00
2018-03-07T08:15:09.946Z,456.00
2018-03-07T08:16:16.463Z,460.00
2018-03-07T08:17:20.951Z,464.00
2018-03-07T08:18:26.466Z,464.00
2018-03-07T08:19:32.994Z,464.00
2018-03-07T08:20:37.466Z,464.00
2018-03-07T08:21:44.018Z,464.00
2018-03-07T08:22:48.506Z,464.00
2018-03-07T08:23:53.998Z,468.00
2018-03-07T08:25:00.527Z,472.00
2018-03-07T08:26:05.025Z,472.00
2018-03-07T08:27:11.546Z,472.00
2018-03-07T08:28:16.040Z,472.00
2018-03-07T08:29:21.562Z,476.00
2018-03-07T08:30:28.070Z,480.00
2018-03-07T08:31:32.581Z,484.00
2018-03-07T08:32:39.090Z,488.00
2018-03-07T08:33:43.600Z,492.00
2018-03-07T08:34:49.102Z,500.00
2018-03-07T08:35:55.637Z,500.00
2018-03-07T08:37:00.155Z,508.00
2018-03-07T08:38:06.647Z,516.00
2018-03-07T08:39:11.131Z,516.00
2018-03-07T08:40:16.652Z,520.00
2018-03-07T08:41:23.192Z,524.00
2018-03-07T08:42:27.679Z,528.00
2018-03-07T08:43:34.195Z,528.00
2018-03-07T08:44:38.711Z,532.00
2018-03-07T08:45:44.219Z,536.00
2018-03-07T08:46:50.727Z,536.00
2018-03-07T08:47:55.238Z,536.00
2018-03-07T08:49:01.741Z,540.00
2018-03-07T08:50:06.240Z,544.00
2018-03-07T08:51:11.760Z,552.00
2018-03-07T08:52:18.282Z,556.00
2018-03-07T08:53:22.776Z,560.00
2018-03-07T08:54:29.304Z,564.00
2018-03-07T08:55:33.805Z,572.00
2018-03-07T08:56:39.331Z,580.00
2018-03-07T08:57:45.846Z,584.00
2018-03-07T08:58:50.338Z,592.00
2018-03-07T08:59:56.860Z,592.00
2018-03-07T09:01:01.369Z,600.00
2018-03-07T09:02:06.876Z,604.00
2018-03-07T09:03:13.396Z,612.00
2018-03-07T09:04:17.880Z,612.00
2018-03-07T09:05:24.423Z,620.00
2018-03-07T09:06:28.926Z,620.00
2018-03-07T09:07:34.427Z,624.00
2018-03-07T09:08:40.949Z,620.00
2018-03-07T09:09:45.445Z,620.00
2018-03-07T09:10:51.970Z,628.00
2018-03-07T09:11:56.464Z,632.00
2018-03-07T09:13:01.973Z,644.00
2018-03-07T09:14:08.512Z,648.00
2018-03-07T09:15:13.003Z,660.00
2018-03-07T09:16:19.527Z,672.00
2018-03-07T09:17:24.036Z,676.00
2018-03-07T09:18:29.528Z,680.00
2018-03-07T09:19:36.058Z,688.00
2018-03-07T09:20:40.564Z,708.00
2018-03-07T09:21:47.078Z,744.00
2018-03-07T09:22:51.589Z,788.00
2018-03-07T09:23:57.089Z,848.00
2018-03-07T09:25:03.620Z,892.00
2018-03-07T09:26:08.130Z,872.00
2018-03-07T09:27:14.659Z,928.00
2018-03-07T09:28:19.135Z,1156.00
2018-03-07T09:29:24.654Z,1400.00
2018-03-07T09:30:31.176Z,1512.00
2018-03-07T09:31:35.676Z,1472.00
2018-03-07T09:32:42.213Z,1540.00
2018-03-07T09:33:46.708Z,1384.00
2018-03-07T09:34:52.207Z,1232.00
2018-03-07T09:35:58.764Z,1144.00
2018-03-07T09:37:03.239Z,1104.00
2018-03-07T09:38:09.762Z,1152.00
2018-03-07T09:39:14.264Z,1220.00
2018-03-07T09:40:19.770Z,1332.00
2018-03-07T09:41:26.295Z,1340.00
2018-03-07T09:42:30.814Z,1404.00
2018-03-07T09:43:37.313Z,1428.00
2018-03-07T09:44:41.827Z,1400.00
2018-03-07T09:45:47.360Z,1404.00
2018-03-07T09:46:53.881Z,1388.00
2018-03-07T09:47:58.369Z,1264.00
2018-03-07T09:49:04.895Z,1188.00
2018-03-07T09:50:09.395Z,1128.00
2018-03-07T09:51:14.890Z,1128.00
2018-03-07T09:52:21.438Z,1128.00
2018-03-07T09:53:26.759Z,1080.00
2018-03-07T09:54:32.448Z,1028.00
2018-03-07T09:55:36.958Z,988.00
2018-03-07T09:56:42.471Z,948.00
2018-03-07T09:57:49.022Z,936.00
2018-03-07T09:58:53.500Z,1004.00
2018-03-07T10:00:00.013Z,972.00
2018-03-07T10:01:04.512Z,972.00
2018-03-07T10:02:10.022Z,936.00
2018-03-07T10:03:16.546Z,932.00
2018-03-07T10:04:21.074Z,952.00
2018-03-07T10:05:27.595Z,984.00
2018-03-07T10:06:32.077Z,904.00
2018-03-07T10:07:37.593Z,836.00
2018-03-07T10:08:44.123Z,812.00
2018-03-07T10:09:48.622Z,808.00
2018-03-07T10:10:55.151Z,808.00
2018-03-07T10:11:59.658Z,752.00
2018-03-07T10:13:05.155Z,740.00
2018-03-07T10:14:11.685Z,832.00
2018-03-07T10:15:16.180Z,860.00
2018-03-07T10:16:22.705Z,860.00
2018-03-07T10:17:27.215Z,884.00
2018-03-07T10:18:32.726Z,884.00
2018-03-07T10:19:39.255Z,884.00
2018-03-07T10:20:43.742Z,916.00
2018-03-07T10:21:50.297Z,896.00
2018-03-07T10:22:54.815Z,1080.00
2018-03-07T10:24:00.305Z,1072.00
2018-03-07T10:25:06.812Z,1056.00
2018-03-07T10:26:11.312Z,1168.00
2018-03-07T10:27:17.834Z,1220.00
2018-03-07T10:28:22.340Z,1200.00
2018-03-07T10:29:27.857Z,1140.00
2018-03-07T10:30:34.382Z,1092.00
2018-03-07T10:31:38.872Z,1112.00
2018-03-07T10:32:45.395Z,1216.00
2018-03-07T10:33:49.901Z,1244.00
2018-03-07T10:34:55.420Z,1268.00
2018-03-07T10:36:01.967Z,1188.00
2018-03-07T10:37:06.931Z,1096.00
2018-03-07T10:38:12.961Z,892.00
2018-03-07T10:39:17.477Z,820.00
2018-03-07T10:40:22.982Z,672.00
2018-03-07T10:41:29.522Z,648.00
2018-03-07T10:42:34.008Z,644.00
2018-03-07T10:43:40.542Z,676.00
2018-03-07T10:44:45.041Z,740.00
2018-03-07T10:45:50.550Z,804.00
2018-03-07T10:46:57.089Z,840.00
2018-03-07T10:48:01.583Z,896.00
2018-03-07T10:49:08.101Z,920.00
2018-03-07T10:50:12.617Z,932.00
2018-03-07T10:51:18.130Z,1016.00
2018-03-07T10:52:24.648Z,1280.00
2018-03-07T10:53:29.137Z,1320.00
2018-03-07T10:54:35.677Z,1296.00
2018-03-07T10:55:40.177Z,1132.00
2018-03-07T10:56:45.677Z,1072.00
2018-03-07T10:57:52.209Z,1148.00
2018-03-07T10:58:56.700Z,1380.00
2018-03-07T11:00:03.253Z,1332.00
2018-03-07T11:01:07.743Z,1164.00
2018-03-07T11:02:13.249Z,980.00
2018-03-07T11:03:19.781Z,924.00
2018-03-07T11:04:24.268Z,964.00
2018-03-07T11:05:30.817Z,1032.00
2018-03-07T11:06:35.308Z,952.00
2018-03-07T11:07:40.816Z,892.00
2018-03-07T11:08:47.365Z,920.00
2018-03-07T11:09:51.828Z,1036.00
2018-03-07T11:10:58.368Z,1124.00
2018-03-07T11:12:02.885Z,1232.00
2018-03-07T11:13:08.377Z,1192.00
2018-03-07T11:14:14.894Z,1432.00
2018-03-07T11:15:19.398Z,1164.00
2018-03-07T11:16:25.923Z,1156.00
2018-03-07T11:17:30.424Z,1184.00
2018-03-07T11:18:35.947Z,1256.00
2018-03-07T11:19:42.468Z,1276.00
2018-03-07T11:20:46.966Z,1360.00
2018-03-07T11:21:53.539Z,1268.00
2018-03-07T11:22:58.007Z,1336.00
2018-03-07T11:24:03.516Z,1412.00
2018-03-07T11:25:10.046Z,1376.00
2018-03-07T11:26:14.539Z,1656.00
2018-03-07T11:27:21.071Z,1868.00
2018-03-07T11:28:25.563Z,1700.00
2018-03-07T11:29:31.074Z,1652.00
2018-03-07T11:30:37.597Z,1496.00
2018-03-07T11:31:42.100Z,1284.00
2018-03-07T11:32:48.634Z,1256.00
2018-03-07T11:33:53.128Z,1252.00
2018-03-07T11:34:58.637Z,1300.00
2018-03-07T11:36:05.162Z,1284.00
2018-03-07T11:37:09.669Z,1240.00
2018-03-07T11:38:16.182Z,1136.00
2018-03-07T11:39:20.692Z,984.00
2018-03-07T11:40:26.198Z,920.00
2018-03-07T11:41:32.728Z,928.00
2018-03-07T11:42:37.234Z,1080.00
2018-03-07T11:43:43.757Z,1252.00
2018-03-07T11:44:48.272Z,1332.00
2018-03-07T11:45:53.777Z,1368.00
2018-03-07T11:47:00.300Z,1364.00
2018-03-07T11:48:04.806Z,1416.00
2018-03-07T11:49:11.312Z,1464.00
2018-03-07T11:50:15.821Z,1524.00
2018-03-07T11:51:21.367Z,1628.00
2018-03-07T11:52:27.864Z,1672.00
2018-03-07T11:53:32.377Z,1668.00
2018-03-07T11:54:38.888Z,1728.00
2018-03-07T11:55:43.392Z,2208.00
2018-03-07T11:56:48.901Z,2652.00
2018-03-07T11:57:55.431Z,2460.00
2018-03-07T11:58:59.918Z,1576.00
2018-03-07T12:00:06.456Z,2284.00
2018-03-07T12:01:10.952Z,2548.00
2018-03-07T12:02:16.458Z,2476.00
2018-03-07T12:03:22.992Z,2032.00
2018-03-07T12:04:27.497Z,1624.00
2018-03-07T12:05:34.017Z,1272.00
2018-03-07T12:06:38.524Z,1176.00
2018-03-07T12:07:44.025Z,1108.00
2018-03-07T12:08:50.569Z,1000.00
2018-03-07T12:09:55.051Z,988.00
2018-03-07T12:11:01.582Z,988.00
2018-03-07T12:12:06.082Z,1064.00
2018-03-07T12:13:11.606Z,1152.00
2018-03-07T12:14:18.155Z,1184.00
2018-03-07T12:15:22.626Z,1152.00
2018-03-07T12:16:29.153Z,1164.00
2018-03-07T12:17:33.687Z,1048.00
2018-03-07T12:18:39.172Z,1100.00
2018-03-07T12:19:45.671Z,1136.00
2018-03-07T12:20:50.181Z,1160.00
2018-03-07T12:21:56.716Z,1220.00
2018-03-07T12:23:01.196Z,1240.00
2018-03-07T12:24:06.722Z,1124.00
2018-03-07T12:25:13.240Z,884.00
2018-03-07T12:26:17.775Z,888.00
2018-03-07T12:27:24.275Z,772.00
2018-03-07T12:28:28.766Z,788.00
2018-03-07T12:29:34.299Z,768.00
2018-03-07T12:30:40.800Z,708.00
2018-03-07T12:31:45.296Z,712.00
2018-03-07T12:32:51.846Z,680.00
2018-03-07T12:33:56.332Z,668.00
2018-03-07T12:35:01.855Z,676.00
2018-03-07T12:36:08.376Z,692.00
2018-03-07T12:37:12.878Z,700.00
2018-03-07T12:38:19.403Z,696.00
2018-03-07T12:39:23.897Z,708.00
2018-03-07T12:40:29.416Z,724.00
2018-03-07T12:41:35.931Z,760.00
2018-03-07T12:42:40.434Z,792.00
2018-03-07T12:43:46.957Z,816.00
2018-03-07T12:44:51.476Z,856.00
2018-03-07T12:45:56.976Z,900.00
2018-03-07T12:47:03.522Z,920.00
2018-03-07T12:48:08.013Z,948.00
2018-03-07T12:49:14.516Z,972.00
2018-03-07T12:50:19.020Z,980.00
2018-03-07T12:51:24.535Z,956.00
2018-03-07T12:52:31.054Z,892.00
2018-03-07T12:53:35.574Z,892.00
2018-03-07T12:54:42.077Z,880.00
2018-03-07T12:55:46.578Z,880.00
2018-03-07T12:56:52.104Z,860.00
2018-03-07T12:57:58.722Z,848.00
2018-03-07T12:59:03.137Z,832.00
2018-03-07T13:00:09.659Z,824.00
2018-03-07T13:01:14.163Z,816.00
2018-03-07T13:02:19.690Z,816.00
2018-03-07T13:03:26.176Z,808.00
2018-03-07T13:04:30.695Z,772.00
2018-03-07T13:05:37.203Z,704.00
2018-03-07T13:06:41.703Z,736.00
2018-03-07T13:07:47.218Z,740.00
2018-03-07T13:08:53.738Z,748.00
2018-03-07T13:09:58.248Z,752.00
2018-03-07T13:11:04.771Z,600.00
2018-03-07T13:12:09.263Z,612.00
2018-03-07T13:13:14.775Z,628.00
2018-03-07T13:14:21.293Z,620.00
2018-03-07T13:15:25.818Z,684.00
2018-03-07T13:16:32.329Z,704.00
2018-03-07T13:17:36.827Z,840.00
2018-03-07T13:18:42.338Z,600.00
2018-03-07T13:19:48.855Z,712.00
2018-03-07T13:20:53.353Z,884.00
2018-03-07T13:21:59.893Z,788.00
2018-03-07T13:23:04.389Z,724.00
2018-03-07T13:24:09.894Z,884.00
2018-03-07T13:25:16.428Z,876.00
2018-03-07T13:26:20.921Z,972.00
2018-03-07T13:27:27.447Z,1084.00
2018-03-07T13:28:31.954Z,1076.00
2018-03-07T13:29:37.465Z,1180.00
2018-03-07T13:30:43.975Z,1156.00
2018-03-07T13:31:48.482Z,1068.00
2018-03-07T13:32:55.014Z,1116.00
2018-03-07T13:33:59.504Z,1024.00
2018-03-07T13:35:05.040Z,1636.00
2018-03-07T13:36:11.536Z,2052.00
2018-03-07T13:37:16.108Z,1932.00
2018-03-07T13:38:22.560Z,1792.00
2018-03-07T13:39:27.062Z,1736.00
2018-03-07T13:40:32.582Z,1712.00
2018-03-07T13:41:39.128Z,1732.00
2018-03-07T13:42:43.599Z,1844.00
2018-03-07T13:43:50.119Z,2080.00
2018-03-07T13:44:54.628Z,2944.00
2018-03-07T13:46:00.136Z,6024.00
2018-03-07T13:47:06.650Z,9032.00
2018-03-07T13:48:11.164Z,12528.00
2018-03-07T13:49:17.706Z,16576.00
2018-03-07T13:50:22.188Z,10932.00
2018-03-07T13:51:27.697Z,9496.00
2018-03-07T13:52:34.231Z,16224.00
2018-03-07T13:53:38.736Z,33600.00
2018-03-07T13:54:45.251Z,32992.00
2018-03-07T13:55:49.756Z,26464.00